Time;durP1;ratioP1;P1;durP2;ratioP2;P2;SDS_P1;SDS_P2;PMS_P1;PMS_P2;Temp;Humidity;BMP_temperature;BMP_pressure;BME280_temperature;BME280_humidity;BME280_pressure;Samples;Min_cycle;Max_cycle;Signal;HPM_P1;HPM_P2
2021/06/21 00:00:26;;;;;;;14.40;10.40;;;19.90;84.10;;;;;;5094577;28;20186;-89
2021/06/21 00:02:53;;;;;;;12.52;10.45;;;19.90;84.40;;;;;;5094770;28;20271;-89
2021/06/21 00:05:19;;;;;;;12.75;9.65;;;19.90;84.40;;;;;;5095571;28;20166;-89
2021/06/21 00:07:45;;;;;;;15.27;10.98;;;19.90;84.50;;;;;;5094095;28;20651;-89
2021/06/21 00:10:13;;;;;;;12.82;10.65;;;19.90;85.10;;;;;;5094051;28;20207;-89
2021/06/21 00:12:41;;;;;;;17.15;12.07;;;19.90;85.90;;;;;;5093775;28;20194;-89
2021/06/21 00:15:08;;;;;;;18.38;11.23;;;19.80;85.80;;;;;;5094081;28;20236;-89
2021/06/21 00:17:34;;;;;;;13.48;9.80;;;19.70;86.00;;;;;;5096626;28;20175;-89
2021/06/21 00:20:00;;;;;;;15.60;10.37;;;19.80;86.60;;;;;;5097442;28;20176;-88
2021/06/21 00:22:25;;;;;;;14.90;11.40;;;19.70;86.80;;;;;;5098920;28;20536;-89
2021/06/21 00:24:53;;;;;;;23.47;12.70;;;19.60;87.60;;;;;;5098742;28;20418;-90
2021/06/21 00:27:19;;;;;;;22.00;14.60;;;19.50;88.40;;;;;;5108016;28;20229;-89
2021/06/21 00:29:45;;;;;;;21.00;15.00;;;19.50;88.90;;;;;;5106876;28;20203;-90
2021/06/21 00:32:11;;;;;;;21.27;14.57;;;19.60;89.60;;;;;;5120359;28;20445;-89
2021/06/21 00:34:37;;;;;;;28.37;15.10;;;19.50;89.60;;;;;;5116528;28;20183;-89
2021/06/21 00:37:03;;;;;;;20.75;15.05;;;19.50;90.10;;;;;;5109869;28;20187;-90
2021/06/21 00:39:29;;;;;;;21.03;15.63;;;19.50;90.40;;;;;;5099145;28;20180;-90
2021/06/21 00:41:54;;;;;;;24.00;16.65;;;19.50;90.60;;;;;;5098261;28;20446;-90
2021/06/21 00:44:20;;;;;;;30.40;16.20;;;19.30;90.30;;;;;;5099156;28;20213;-91
2021/06/21 00:46:46;;;;;;;28.60;16.27;;;19.30;90.40;;;;;;5097941;28;20182;-90
2021/06/21 00:49:12;;;;;;;23.97;16.23;;;19.30;90.90;;;;;;5097443;28;20195;-90
2021/06/21 00:51:38;;;;;;;24.40;16.43;;;19.30;91.40;;;;;;5097337;28;20215;-90
2021/06/21 00:54:04;;;;;;;34.55;16.45;;;19.30;92.00;;;;;;5098428;28;20418;-90
2021/06/21 00:56:31;;;;;;;22.83;15.70;;;19.30;92.40;;;;;;5097441;28;20629;-90
2021/06/21 00:59:01;;;;;;;27.52;17.73;;;19.30;92.50;;;;;;5098324;28;20934;-90
2021/06/21 01:01:28;;;;;;;28.80;16.88;;;19.10;91.90;;;;;;5094100;28;20213;-91
2021/06/21 01:03:53;;;;;;;25.42;16.92;;;19.00;92.10;;;;;;5078222;28;20267;-91
2021/06/21 01:06:19;;;;;;;29.23;18.60;;;19.00;92.10;;;;;;5078381;28;20219;-91
2021/06/21 01:08:45;;;;;;;24.87;17.93;;;19.10;92.60;;;;;;5079482;28;21039;-91
2021/06/21 01:11:12;;;;;;;28.50;17.35;;;18.90;92.20;;;;;;5080298;28;20633;-91
2021/06/21 01:13:37;;;;;;;29.70;16.95;;;19.00;92.50;;;;;;5100567;28;20173;-91
2021/06/21 01:16:21;;;;;;;28.50;17.93;;;19.00;92.70;;;;;;5096104;28;20176;-91
2021/06/21 01:19:36;;;;;;;31.15;16.65;;;18.90;92.80;;;;;;5093138;28;20225;-91
2021/06/21 01:22:30;;;;;;;29.80;18.30;;;18.90;92.90;;;;;;5073274;28;20196;-91
2021/06/21 01:25:18;;;;;;;27.92;18.20;;;18.80;93.10;;;;;;5076735;28;20189;-92
2021/06/21 01:28:02;;;;;;;30.85;19.23;;;18.80;93.90;;;;;;5077915;28;20179;-92
2021/06/21 01:30:46;;;;;;;32.28;19.48;;;18.80;94.00;;;;;;5078531;28;20220;-92
2021/06/21 01:33:14;;;;;;;34.83;21.73;;;18.70;94.20;;;;;;5079939;28;20180;-92
2021/06/21 01:35:57;;;;;;;35.75;19.27;;;18.80;94.80;;;;;;5088897;28;20176;-92
2021/06/21 01:38:29;;;;;;;26.58;18.55;;;18.60;95.10;;;;;;5087841;28;20565;-92
2021/06/21 01:40:59;;;;;;;34.60;20.58;;;18.60;95.30;;;;;;5092683;28;20195;-92
2021/06/21 01:43:44;;;;;;;37.00;20.73;;;18.70;96.00;;;;;;5085523;28;20169;-92
2021/06/21 01:46:13;;;;;;;28.67;20.58;;;18.60;96.30;;;;;;5076927;28;20627;-92
2021/06/21 01:48:50;;;;;;;34.92;22.08;;;18.50;96.50;;;;;;5076992;28;20239;-92
2021/06/21 01:51:18;;;;;;;37.75;22.77;;;18.50;96.70;;;;;;5076843;28;20195;-91
2021/06/21 01:53:47;;;;;;;32.80;22.42;;;18.40;96.60;;;;;;5076511;28;20272;-91
2021/06/21 01:56:32;;;;;;;35.22;23.05;;;18.50;96.70;;;;;;5076835;28;20177;-92
2021/06/21 01:59:01;;;;;;;43.83;23.65;;;18.50;96.60;;;;;;5076855;28;20207;-92
2021/06/21 02:01:28;;;;;;;40.75;23.77;;;18.40;96.00;;;;;;5076266;28;20257;-92
2021/06/21 02:03:55;;;;;;;46.53;22.73;;;18.40;95.90;;;;;;5076397;28;20592;-92
2021/06/21 02:06:25;;;;;;;34.97;21.42;;;18.50;96.20;;;;;;5076759;28;20229;-91
2021/06/21 02:08:51;;;;;;;40.55;23.38;;;18.50;96.20;;;;;;5076073;28;20200;-91
2021/06/21 02:11:18;;;;;;;46.05;24.35;;;18.40;96.00;;;;;;5075958;28;20201;-91
2021/06/21 02:13:45;;;;;;;36.78;23.27;;;18.50;96.20;;;;;;5076138;28;20181;-92
2021/06/21 02:16:13;;;;;;;36.83;23.27;;;18.20;95.70;;;;;;5076270;28;20177;-92
2021/06/21 02:18:40;;;;;;;49.00;26.17;;;18.40;96.00;;;;;;5076001;28;20176;-91
2021/06/21 02:21:06;;;;;;;44.85;25.75;;;18.30;96.30;;;;;;5076096;28;20200;-92
2021/06/21 02:23:41;;;;;;;38.42;24.85;;;18.00;95.50;;;;;;5077687;28;20204;-92
2021/06/21 02:26:07;;;;;;;39.05;24.00;;;18.00;95.70;;;;;;5076444;28;20187;-92
2021/06/21 02:28:34;;;;;;;41.15;24.77;;;17.90;96.00;;;;;;5076381;28;20223;-92
2021/06/21 02:31:03;;;;;;;42.88;25.63;;;17.90;96.30;;;;;;5075864;28;20196;-92
2021/06/21 02:33:30;;;;;;;39.40;26.92;;;17.70;96.20;;;;;;5075995;28;20173;-92
2021/06/21 02:35:55;;;;;;;44.85;24.35;;;17.80;96.50;;;;;;5075971;28;20180;-92
2021/06/21 02:38:21;;;;;;;39.80;24.57;;;17.60;96.50;;;;;;5075942;28;20533;-92
2021/06/21 02:40:47;;;;;;;41.65;25.08;;;17.40;96.40;;;;;;5086944;28;20730;-92
2021/06/21 02:43:15;;;;;;;37.70;25.37;;;17.40;96.70;;;;;;5095967;28;20210;-92
2021/06/21 02:45:41;;;;;;;45.30;24.73;;;17.30;97.00;;;;;;5095545;28;20424;-92
2021/06/21 02:48:09;;;;;;;43.42;27.08;;;17.40;97.30;;;;;;5095934;28;20175;-92
2021/06/21 02:50:37;;;;;;;43.15;24.80;;;17.40;98.10;;;;;;5075070;28;20261;-92
2021/06/21 02:53:19;;;;;;;45.08;26.17;;;17.30;98.60;;;;;;5075674;28;20187;-92
2021/06/21 02:55:49;;;;;;;47.60;26.65;;;17.30;98.80;;;;;;5076518;28;20161;-93
2021/06/21 02:58:21;;;;;;;43.83;28.15;;;17.20;99.10;;;;;;5075821;28;20215;-92
2021/06/21 03:00:53;;;;;;;45.78;27.08;;;17.30;99.40;;;;;;5075589;28;20188;-92
2021/06/21 03:03:30;;;;;;;54.00;30.00;;;17.40;99.90;;;;;;5073873;28;20165;-92
2021/06/21 03:05:57;;;;;;;46.85;28.88;;;17.20;99.70;;;;;;5075871;28;20191;-92
2021/06/21 03:08:23;;;;;;;50.60;28.00;;;17.20;99.90;;;;;;5074944;28;20161;-92
2021/06/21 03:10:49;;;;;;;54.00;26.70;;;17.20;99.70;;;;;;5074668;28;20198;-92
2021/06/21 03:13:20;;;;;;;44.22;25.63;;;17.10;99.40;;;;;;5079565;28;20486;-92
2021/06/21 03:15:46;;;;;;;44.28;26.40;;;17.10;99.40;;;;;;5074793;28;20264;-92
2021/06/21 03:18:13;;;;;;;50.47;27.63;;;17.10;99.40;;;;;;5074783;28;20223;-92
2021/06/21 03:20:39;;;;;;;51.25;25.42;;;17.10;99.70;;;;;;5074204;28;20192;-92
2021/06/21 03:23:05;;;;;;;47.63;25.57;;;17.10;99.90;;;;;;5074748;28;20180;-92
2021/06/21 03:25:34;;;;;;;47.03;27.02;;;17.10;99.80;;;;;;5075112;28;20446;-92
2021/06/21 03:28:11;;;;;;;48.63;26.13;;;16.90;98.70;;;;;;5075683;28;20675;-91
2021/06/21 03:30:44;;;;;;;42.00;26.80;;;16.90;98.50;;;;;;5075255;28;20188;-91
2021/06/21 03:33:10;;;;;;;48.08;25.25;;;16.90;98.60;;;;;;5074575;28;20175;-91
2021/06/21 03:35:36;;;;;;;41.03;24.65;;;16.80;98.50;;;;;;5075455;28;20198;-91
2021/06/21 03:38:13;;;;;;;42.70;25.02;;;16.70;98.10;;;;;;5075345;28;20177;-91
2021/06/21 03:40:39;;;;;;;46.05;25.27;;;16.70;98.00;;;;;;5085722;28;20172;-91
2021/06/21 03:43:05;;;;;;;40.20;26.10;;;16.70;97.90;;;;;;5095937;28;20183;-91
2021/06/21 03:45:30;;;;;;;39.97;23.50;;;16.70;98.00;;;;;;5096046;28;20171;-91
2021/06/21 03:47:56;;;;;;;41.50;22.67;;;16.70;98.00;;;;;;5096329;28;20409;-91
2021/06/21 03:50:22;;;;;;;38.80;23.00;;;16.50;96.70;;;;;;5095195;28;20211;-92
2021/06/21 03:52:48;;;;;;;38.50;22.97;;;16.40;96.70;;;;;;5096092;28;20973;-91
2021/06/21 03:55:14;;;;;;;44.77;23.60;;;16.50;97.00;;;;;;5095315;28;20175;-91
2021/06/21 03:57:42;;;;;;;38.50;21.80;;;16.60;97.10;;;;;;5095384;28;20258;-91
2021/06/21 04:00:15;;;;;;;35.63;21.42;;;16.50;97.10;;;;;;5094629;28;20490;-90
2021/06/21 04:02:41;;;;;;;34.78;21.00;;;16.50;96.90;;;;;;5095055;28;20207;-91
2021/06/21 04:05:08;;;;;;;36.73;19.37;;;16.40;96.80;;;;;;5095819;28;20642;-91
2021/06/21 04:07:34;;;;;;;39.40;19.63;;;16.50;97.00;;;;;;5094265;28;20433;-90
2021/06/21 04:10:01;;;;;;;35.73;20.87;;;16.50;97.00;;;;;;5094409;28;20195;-90
2021/06/21 04:12:27;;;;;;;38.33;20.00;;;16.40;96.40;;;;;;5093685;28;20484;-90
2021/06/21 04:14:52;;;;;;;30.40;17.85;;;16.50;96.40;;;;;;5093980;28;20180;-90
2021/06/21 04:17:19;;;;;;;32.70;18.47;;;16.40;96.50;;;;;;5095843;28;20183;-90
2021/06/21 04:19:45;;;;;;;30.98;17.73;;;16.40;96.70;;;;;;5094470;28;20190;-90
2021/06/21 04:22:10;;;;;;;34.75;18.10;;;16.40;96.90;;;;;;5095924;28;20199;-90
2021/06/21 04:24:36;;;;;;;34.33;19.00;;;16.40;96.90;;;;;;5095052;28;20240;-90
2021/06/21 04:27:02;;;;;;;31.37;18.90;;;16.50;97.20;;;;;;5095300;28;20175;-90
2021/06/21 04:29:27;;;;;;;29.07;17.03;;;16.50;97.40;;;;;;5094240;28;20203;-90
2021/06/21 04:31:53;;;;;;;31.33;17.70;;;16.40;96.90;;;;;;5093810;28;20436;-90
2021/06/21 04:34:19;;;;;;;27.80;16.57;;;16.40;96.70;;;;;;5094367;28;20171;-90
2021/06/21 04:36:45;;;;;;;33.80;17.20;;;16.20;95.00;;;;;;5094323;28;20550;-90
2021/06/21 04:39:10;;;;;;;27.13;14.93;;;16.20;95.30;;;;;;5094215;28;20782;-90
2021/06/21 04:41:36;;;;;;;31.30;16.40;;;16.20;96.50;;;;;;5095570;28;20344;-91
2021/06/21 04:44:18;;;;;;;29.83;16.40;;;16.30;95.90;;;;;;5094139;28;20447;-91
2021/06/21 04:46:44;;;;;;;26.50;15.13;;;16.20;95.90;;;;;;5096821;28;20615;-91
2021/06/21 04:49:13;;;;;;;29.70;15.90;;;16.20;95.80;;;;;;5108311;28;20199;-89
2021/06/21 04:51:40;;;;;;;30.38;16.27;;;16.20;95.80;;;;;;5117897;28;20196;-90
2021/06/21 04:54:06;;;;;;;26.92;14.60;;;16.20;96.00;;;;;;5108113;28;20180;-90
2021/06/21 04:56:35;;;;;;;24.80;15.50;;;16.20;96.10;;;;;;5118518;28;20179;-91
2021/06/21 04:59:02;;;;;;;27.27;15.82;;;16.10;95.80;;;;;;5117760;28;20424;-89
2021/06/21 05:01:27;;;;;;;27.75;14.90;;;16.20;95.90;;;;;;5116692;28;20229;-89
2021/06/21 05:03:56;;;;;;;28.40;14.03;;;16.30;96.30;;;;;;5098226;28;20267;-90
2021/06/21 05:06:22;;;;;;;30.08;14.35;;;16.20;96.00;;;;;;5100477;28;20191;-90
2021/06/21 05:08:48;;;;;;;30.47;14.30;;;16.20;95.90;;;;;;5114963;28;20187;-90
2021/06/21 05:11:14;;;;;;;27.20;14.43;;;16.30;96.10;;;;;;5118409;28;20259;-90
2021/06/21 05:13:40;;;;;;;27.35;14.95;;;16.30;95.90;;;;;;5119298;28;20247;-89
2021/06/21 05:16:06;;;;;;;28.40;14.70;;;16.30;95.60;;;;;;5119415;28;20183;-91
2021/06/21 05:18:32;;;;;;;24.97;14.57;;;16.30;95.30;;;;;;5114972;28;20179;-90
2021/06/21 05:20:57;;;;;;;29.10;15.00;;;16.30;96.00;;;;;;5099020;28;20203;-90
2021/06/21 05:23:23;;;;;;;25.47;14.57;;;16.30;95.60;;;;;;5098143;28;20845;-90
2021/06/21 05:25:49;;;;;;;26.20;14.50;;;16.20;95.10;;;;;;5098540;28;20191;-91
2021/06/21 05:28:15;;;;;;;24.93;15.10;;;16.20;95.50;;;;;;5098560;28;20172;-91
2021/06/21 05:30:41;;;;;;;28.33;14.60;;;16.20;95.20;;;;;;5099971;28;20207;-91
2021/06/21 05:33:06;;;;;;;26.77;14.77;;;16.30;95.40;;;;;;5107782;28;20167;-91
2021/06/21 05:35:33;;;;;;;23.00;13.80;;;16.20;95.10;;;;;;5114546;28;20421;-90
2021/06/21 05:37:59;;;;;;;22.75;13.32;;;16.40;95.30;;;;;;5116428;28;20172;-90
2021/06/21 05:40:25;;;;;;;22.13;12.73;;;16.30;95.10;;;;;;5110801;28;20176;-91
2021/06/21 05:42:50;;;;;;;21.83;12.77;;;16.30;95.60;;;;;;5107337;28;20661;-90
2021/06/21 05:45:17;;;;;;;26.77;13.77;;;16.20;95.70;;;;;;5103564;28;20172;-91
2021/06/21 05:47:44;;;;;;;17.75;10.93;;;16.20;96.10;;;;;;5098646;28;20176;-90
2021/06/21 05:50:11;;;;;;;18.05;10.43;;;16.20;96.40;;;;;;5096927;28;20242;-89
2021/06/21 05:52:37;;;;;;;21.45;10.70;;;16.30;97.40;;;;;;5097512;28;20199;-91
2021/06/21 05:55:03;;;;;;;19.10;9.80;;;16.20;97.60;;;;;;5097413;28;20635;-90
2021/06/21 05:57:30;;;;;;;19.58;11.00;;;16.30;98.00;;;;;;5097146;28;20258;-90
2021/06/21 05:59:56;;;;;;;22.63;11.57;;;16.30;98.00;;;;;;5096402;28;20194;-91
2021/06/21 06:02:22;;;;;;;20.27;10.77;;;16.20;97.50;;;;;;5096251;28;20282;-90
2021/06/21 06:04:48;;;;;;;22.58;10.75;;;16.10;97.60;;;;;;5095398;28;20172;-90
2021/06/21 06:07:14;;;;;;;21.27;11.30;;;16.20;97.60;;;;;;5102085;28;20202;-93
2021/06/21 06:09:40;;;;;;;22.05;10.88;;;16.20;97.90;;;;;;5101777;28;20191;-93
2021/06/21 06:12:06;;;;;;;19.43;11.03;;;16.20;98.40;;;;;;5098842;28;20203;-93
2021/06/21 06:14:32;;;;;;;15.88;10.68;;;16.20;99.10;;;;;;5097648;28;20263;-93
2021/06/21 06:16:59;;;;;;;25.03;11.00;;;16.20;99.10;;;;;;5097601;28;20214;-94
2021/06/21 06:19:25;;;;;;;24.63;12.32;;;16.20;99.20;;;;;;5096164;28;20929;-93
2021/06/21 06:21:51;;;;;;;24.02;11.18;;;16.10;99.00;;;;;;5096901;28;20208;-92
2021/06/21 06:24:17;;;;;;;21.67;11.67;;;16.10;99.80;;;;;;5096410;28;20175;-92
2021/06/21 06:26:44;;;;;;;24.30;12.15;;;16.10;99.20;;;;;;5096481;28;20182;-93
2021/06/21 06:29:11;;;;;;;25.65;12.77;;;16.20;99.30;;;;;;5096017;28;20227;-92
2021/06/21 06:31:37;;;;;;;29.55;13.57;;;16.20;99.70;;;;;;5096410;28;20188;-93
2021/06/21 06:34:03;;;;;;;25.53;14.03;;;16.20;99.90;;;;;;5097534;28;20187;-92
2021/06/21 06:36:29;;;;;;;21.98;13.00;;;16.20;99.80;;;;;;5098383;28;20421;-92
2021/06/21 06:38:55;;;;;;;26.33;13.60;;;16.30;99.90;;;;;;5097396;28;20180;-92
2021/06/21 06:41:21;;;;;;;24.90;13.20;;;16.30;99.90;;;;;;5096200;28;20442;-92
2021/06/21 06:43:47;;;;;;;25.83;14.20;;;16.30;99.90;;;;;;5097740;28;20420;-92
2021/06/21 06:46:13;;;;;;;22.70;13.13;;;16.20;99.90;;;;;;5097234;28;20573;-92
2021/06/21 06:48:39;;;;;;;22.58;12.27;;;16.10;99.90;;;;;;5097043;28;20425;-92
2021/06/21 06:51:05;;;;;;;24.07;13.33;;;16.20;99.90;;;;;;5096698;28;20196;-92
2021/06/21 06:53:44;;;;;;;27.65;12.25;;;16.30;99.90;;;;;;5096702;28;20988;-92
2021/06/21 06:58:56;;;;;;;23.48;12.20;;;16.30;99.90;;;;;;5098471;28;20638;-93
2021/06/21 07:01:23;;;;;;;19.45;11.27;;;16.20;99.90;;;;;;5096677;28;20206;-93
2021/06/21 07:03:50;;;;;;;18.65;10.15;;;16.20;99.90;;;;;;5096510;28;20188;-93
2021/06/21 07:06:17;;;;;;;20.95;11.35;;;16.10;99.90;;;;;;5096836;28;20195;-92
2021/06/21 07:08:44;;;;;;;18.58;10.70;;;16.10;99.90;;;;;;5095933;28;20196;-93
2021/06/21 07:11:10;;;;;;;24.65;10.57;;;16.10;99.90;;;;;;5095706;28;20286;-92
2021/06/21 07:13:36;;;;;;;20.35;11.30;;;16.20;99.90;;;;;;5096197;28;20172;-92
2021/06/21 07:16:02;;;;;;;17.13;11.10;;;16.10;99.90;;;;;;5095470;28;20176;-92
2021/06/21 07:18:28;;;;;;;23.10;11.90;;;16.00;99.90;;;;;;5079413;28;20789;-92
2021/06/21 07:20:54;;;;;;;22.97;9.87;;;16.00;99.90;;;;;;5096377;28;20519;-92
2021/06/21 07:23:19;;;;;;;23.10;10.67;;;16.20;99.90;;;;;;5095848;28;20259;-92
2021/06/21 07:25:45;;;;;;;18.33;10.40;;;16.10;99.90;;;;;;5096595;28;20188;-93
2021/06/21 07:28:12;;;;;;;18.63;10.40;;;16.00;99.90;;;;;;5095511;28;20646;-93
2021/06/21 07:30:38;;;;;;;20.65;9.60;;;16.00;99.90;;;;;;5095564;28;20685;-92
2021/06/21 07:33:04;;;;;;;17.40;10.20;;;16.00;99.90;;;;;;5095516;28;20176;-92
2021/06/21 07:35:29;;;;;;;18.95;10.27;;;15.90;99.90;;;;;;5095505;28;20418;-92
2021/06/21 07:37:55;;;;;;;20.17;11.07;;;16.00;99.90;;;;;;5096573;28;20175;-92
2021/06/21 07:40:21;;;;;;;18.30;10.13;;;16.00;99.90;;;;;;5095281;28;20479;-92
2021/06/21 07:42:47;;;;;;;19.27;9.67;;;15.90;99.90;;;;;;5095398;28;20232;-92
2021/06/21 07:45:13;;;;;;;16.70;9.37;;;15.90;99.90;;;;;;5096328;28;20175;-92
2021/06/21 07:47:39;;;;;;;20.63;8.85;;;16.00;99.90;;;;;;5098426;28;20183;-93
2021/06/21 07:50:05;;;;;;;19.43;9.80;;;16.00;99.90;;;;;;5099936;28;20238;-92
2021/06/21 07:52:31;;;;;;;19.42;9.38;;;16.00;99.90;;;;;;5097799;28;20195;-93
2021/06/21 07:54:59;;;;;;;18.08;9.60;;;16.00;99.90;;;;;;5098642;28;20182;-93
2021/06/21 07:57:26;;;;;;;18.60;8.77;;;16.00;99.90;;;;;;5099133;28;20172;-92
2021/06/21 07:59:52;;;;;;;13.85;8.95;;;16.00;99.90;;;;;;5095730;28;20180;-93
2021/06/21 08:02:18;;;;;;;13.97;9.53;;;15.90;99.90;;;;;;5095943;28;20206;-93
2021/06/21 08:04:47;;;;;;;15.73;8.30;;;15.80;99.90;;;;;;5097480;28;20657;-92
2021/06/21 08:07:13;;;;;;;12.02;7.85;;;15.80;99.90;;;;;;5097322;28;20606;-93
2021/06/21 08:09:39;;;;;;;14.63;8.30;;;15.90;99.90;;;;;;5098465;28;20227;-93
2021/06/21 08:12:05;;;;;;;14.90;8.70;;;15.70;99.90;;;;;;5098010;28;20199;-93
2021/06/21 08:14:31;;;;;;;15.32;8.73;;;15.80;99.90;;;;;;5098983;28;20780;-93
2021/06/21 08:16:57;;;;;;;13.40;8.43;;;15.80;99.90;;;;;;5097978;28;20225;-93
2021/06/21 08:19:23;;;;;;;13.63;9.43;;;15.80;99.90;;;;;;5098023;28;20183;-93
2021/06/21 08:21:49;;;;;;;15.67;8.07;;;15.70;99.90;;;;;;5100378;28;20231;-92
2021/06/21 08:24:15;;;;;;;15.15;8.15;;;15.70;99.90;;;;;;5100905;28;20410;-93
2021/06/21 08:26:40;;;;;;;13.93;8.40;;;15.70;99.90;;;;;;5098935;28;20637;-94
2021/06/21 08:29:06;;;;;;;17.30;8.47;;;15.70;99.90;;;;;;5100264;28;20460;-94
2021/06/21 08:31:33;;;;;;;11.23;6.90;;;15.90;99.90;;;;;;5100516;28;20195;-94
2021/06/21 08:34:00;;;;;;;11.60;8.70;;;16.00;99.90;;;;;;5103030;28;20422;-94
2021/06/21 08:36:29;;;;;;;12.15;7.85;;;16.10;99.90;;;;;;5105846;28;20176;-93
2021/06/21 08:39:01;;;;;;;9.35;7.05;;;15.90;99.90;;;;;;5103796;28;20241;-93
2021/06/21 08:41:27;;;;;;;10.10;6.72;;;15.80;99.90;;;;;;5111598;28;20263;-93
2021/06/21 08:43:54;;;;;;;12.87;7.50;;;15.90;99.90;;;;;;5120830;28;20164;-94
2021/06/21 08:46:20;;;;;;;11.75;6.00;;;16.10;99.90;;;;;;5119086;28;20422;-93
2021/06/21 08:48:47;;;;;;;10.82;7.53;;;16.10;99.90;;;;;;5110293;28;20210;-94
2021/06/21 08:51:15;;;;;;;7.70;6.07;;;16.20;99.90;;;;;;5101193;28;20667;-93
2021/06/21 08:53:41;;;;;;;10.18;6.50;;;16.30;99.90;;;;;;5067187;28;20204;-94
2021/06/21 08:56:08;;;;;;;10.32;7.28;;;16.20;99.10;;;;;;5082447;28;20187;-94
2021/06/21 08:58:37;;;;;;;12.07;6.60;;;16.30;99.20;;;;;;5082984;28;20671;-93
2021/06/21 09:01:03;;;;;;;9.75;6.35;;;16.40;99.20;;;;;;5082838;28;20196;-94
2021/06/21 09:03:32;;;;;;;9.02;6.43;;;16.30;98.30;;;;;;5087736;28;20231;-94
2021/06/21 09:05:58;;;;;;;6.22;5.55;;;16.20;96.70;;;;;;5087079;28;20216;-94
2021/06/21 09:08:24;;;;;;;9.13;6.90;;;16.30;96.20;;;;;;5100346;28;20191;-94
2021/06/21 09:10:54;;;;;;;7.67;6.10;;;16.20;95.60;;;;;;5097903;28;20204;-93
2021/06/21 09:13:25;;;;;;;9.38;6.07;;;16.10;95.20;;;;;;5099449;28;20419;-93
2021/06/21 09:15:55;;;;;;;8.98;6.93;;;16.30;95.60;;;;;;5097275;28;20169;-94
2021/06/21 09:18:37;;;;;;;7.57;6.05;;;16.20;95.60;;;;;;5094571;28;20169;-93
2021/06/21 09:21:19;;;;;;;13.57;6.07;;;16.20;95.40;;;;;;5089668;28;20244;-94
2021/06/21 09:24:01;;;;;;;8.57;6.72;;;16.30;95.70;;;;;;5089005;28;20177;-94
2021/06/21 09:26:31;;;;;;;8.57;6.63;;;16.20;95.00;;;;;;5072315;28;20181;-94
2021/06/21 09:28:59;;;;;;;8.40;6.15;;;16.40;95.20;;;;;;5070899;28;20212;-93
2021/06/21 09:31:26;;;;;;;8.95;7.20;;;16.50;95.20;;;;;;5088729;28;20192;-93
2021/06/21 09:34:15;;;;;;;9.15;6.40;;;16.40;94.80;;;;;;5088077;28;20271;-93
2021/06/21 09:36:46;;;;;;;9.90;6.55;;;16.40;94.70;;;;;;5093178;28;20177;-93
2021/06/21 09:39:24;;;;;;;6.90;5.60;;;16.60;95.00;;;;;;5098196;28;20177;-93
2021/06/21 09:42:15;;;;;;;9.10;6.22;;;16.70;95.00;;;;;;5097206;28;20188;-93
2021/06/21 09:44:50;;;;;;;9.18;6.05;;;16.90;94.40;;;;;;5095471;28;20184;-92
2021/06/21 09:47:39;;;;;;;5.10;4.60;;;17.00;93.80;;;;;;5085555;28;20258;-92
2021/06/21 09:50:08;;;;;;;5.78;4.78;;;16.90;93.20;;;;;;5083929;28;20192;-93
2021/06/21 09:52:40;;;;;;;5.50;4.28;;;16.90;92.00;;;;;;5083355;28;20196;-92
2021/06/21 09:55:22;;;;;;;5.63;4.93;;;17.00;91.60;;;;;;5083402;28;20164;-92
2021/06/21 09:58:09;;;;;;;6.45;4.70;;;16.90;90.80;;;;;;5090332;28;20782;-93
2021/06/21 10:00:40;;;;;;;5.45;4.53;;;16.90;90.80;;;;;;5088468;28;20178;-92
2021/06/21 10:03:28;;;;;;;5.10;4.60;;;17.00;90.70;;;;;;5087226;28;20571;-93
2021/06/21 10:06:09;;;;;;;3.92;3.63;;;17.10;91.10;;;;;;5088462;28;20208;-93
2021/06/21 10:08:42;;;;;;;5.05;4.43;;;17.00;89.40;;;;;;5085568;28;20177;-92
2021/06/21 10:11:41;;;;;;;4.50;4.10;;;17.00;89.80;;;;;;5099153;28;20200;-91
2021/06/21 10:14:18;;;;;;;4.45;3.58;;;17.20;90.40;;;;;;5097818;28;20165;-92
2021/06/21 10:16:46;;;;;;;3.08;2.80;;;17.30;89.80;;;;;;5095867;28;20206;-93
2021/06/21 10:19:14;;;;;;;3.45;3.15;;;17.40;89.40;;;;;;5091335;28;20246;-92
2021/06/21 10:21:42;;;;;;;3.47;3.13;;;17.50;89.20;;;;;;5090555;28;20195;-93
2021/06/21 10:24:08;;;;;;;4.30;3.90;;;17.60;88.90;;;;;;5090650;28;20236;-92
2021/06/21 10:26:37;;;;;;;4.10;3.72;;;17.70;88.60;;;;;;5091044;28;20180;-93
2021/06/21 10:29:06;;;;;;;4.15;3.65;;;17.70;88.50;;;;;;5092230;28;20200;-92
2021/06/21 10:31:33;;;;;;;3.22;2.92;;;17.70;88.30;;;;;;5092313;28;20216;-92
2021/06/21 10:34:05;;;;;;;5.95;3.28;;;18.00;89.30;;;;;;5094230;28;20182;-92
2021/06/21 10:36:41;;;;;;;3.70;2.90;;;18.00;88.60;;;;;;5093477;28;20176;-91
2021/06/21 10:39:12;;;;;;;5.45;3.80;;;18.00;88.20;;;;;;5088854;28;20180;-92
2021/06/21 10:41:38;;;;;;;4.38;3.97;;;17.90;87.40;;;;;;5084311;28;20200;-92
2021/06/21 10:44:04;;;;;;;5.65;3.45;;;18.10;87.40;;;;;;5085245;28;20180;-92
2021/06/21 10:46:34;;;;;;;5.53;4.33;;;17.90;86.30;;;;;;5085386;28;20176;-93
2021/06/21 10:49:01;;;;;;;4.88;3.40;;;17.80;86.30;;;;;;5087642;28;20469;-93
2021/06/21 10:51:31;;;;;;;3.53;3.22;;;17.70;86.70;;;;;;5085507;28;20201;-92
2021/06/21 10:53:58;;;;;;;4.57;3.05;;;17.80;86.50;;;;;;5088280;28;20259;-93
2021/06/21 10:57:00;;;;;;;3.58;3.28;;;17.90;86.00;;;;;;5086720;28;20176;-93
2021/06/21 10:59:28;;;;;;;4.05;3.65;;;18.00;85.00;;;;;;5064870;28;20161;-92
2021/06/21 11:02:03;;;;;;;3.92;3.35;;;18.00;84.50;;;;;;5080398;28;20212;-92
2021/06/21 11:04:35;;;;;;;6.55;3.63;;;18.00;84.60;;;;;;5083894;28;20181;-91
2021/06/21 11:07:08;;;;;;;4.00;3.60;;;17.80;83.80;;;;;;5088937;28;20203;-92
2021/06/21 11:10:01;;;;;;;5.10;4.32;;;17.90;84.70;;;;;;5088511;28;20196;-92
2021/06/21 11:12:41;;;;;;;4.88;3.95;;;17.90;83.40;;;;;;5089856;28;20208;-90
2021/06/21 11:15:09;;;;;;;4.50;4.13;;;18.00;83.10;;;;;;5082616;28;20240;-89
2021/06/21 11:17:50;;;;;;;4.57;4.18;;;18.10;83.60;;;;;;5099017;28;20172;-89
2021/06/21 11:20:41;;;;;;;5.60;3.70;;;18.10;82.00;;;;;;5098091;28;20176;-90
2021/06/21 11:23:12;;;;;;;4.93;4.13;;;18.40;82.30;;;;;;5096005;28;20180;-91
2021/06/21 11:25:40;;;;;;;4.60;4.20;;;18.20;80.70;;;;;;5098647;28;20267;-90
2021/06/21 11:28:06;;;;;;;4.55;4.15;;;18.20;80.80;;;;;;5097872;28;20180;-90
2021/06/21 11:30:40;;;;;;;7.00;4.47;;;18.10;81.00;;;;;;5097429;28;20267;-91
2021/06/21 11:33:09;;;;;;;4.47;4.07;;;18.20;82.30;;;;;;5098031;28;20417;-90
2021/06/21 11:35:58;;;;;;;4.25;3.90;;;18.40;81.60;;;;;;5099848;28;20180;-93
2021/06/21 11:38:31;;;;;;;4.80;4.30;;;18.70;80.50;;;;;;5107690;28;20190;-93
2021/06/21 11:41:22;;;;;;;5.43;4.95;;;18.90;79.40;;;;;;5107306;28;20196;-93
2021/06/21 11:43:54;;;;;;;4.70;4.20;;;18.90;77.90;;;;;;5106247;28;20305;-94
2021/06/21 11:46:42;;;;;;;5.28;4.78;;;19.00;77.70;;;;;;5104828;28;20179;-93
2021/06/21 11:49:18;;;;;;;4.50;4.10;;;18.80;77.80;;;;;;5101511;28;20561;-93
2021/06/21 11:51:55;;;;;;;4.57;4.15;;;18.70;78.00;;;;;;5107339;28;20191;-91
2021/06/21 11:54:22;;;;;;;4.20;3.90;;;18.50;77.80;;;;;;5099394;28;20183;-92
2021/06/21 11:57:00;;;;;;;4.95;4.05;;;18.60;78.80;;;;;;5102347;28;20180;-91
2021/06/21 12:02:07;;;;;;;4.10;3.72;;;18.80;78.60;;;;;;5457008;22;20698;-81
2021/06/21 12:04:33;;;;;;;7.05;4.13;;;18.90;77.50;;;;;;5004708;28;20189;-82
2021/06/21 12:06:59;;;;;;;5.33;4.40;;;19.20;78.20;;;;;;5021173;28;20194;-81
2021/06/21 12:09:25;;;;;;;4.00;3.70;;;19.10;76.90;;;;;;5021684;28;20455;-81
2021/06/21 12:11:52;;;;;;;5.07;4.57;;;19.20;77.00;;;;;;5036907;28;20679;-82
2021/06/21 12:14:24;;;;;;;4.65;4.35;;;19.30;78.50;;;;;;5018783;28;20189;-82
2021/06/21 12:16:51;;;;;;;5.45;4.95;;;19.30;79.00;;;;;;5019031;28;20182;-82
2021/06/21 12:19:23;;;;;;;9.82;5.30;;;19.10;78.80;;;;;;5008404;28;20186;-83
2021/06/21 12:21:49;;;;;;;5.25;4.75;;;19.20;79.60;;;;;;5003132;28;20198;-82
2021/06/21 12:24:28;;;;;;;5.40;4.67;;;19.10;79.60;;;;;;5003230;28;20189;-82
2021/06/21 12:26:57;;;;;;;6.30;5.70;;;18.80;79.10;;;;;;5006239;28;20174;-82
2021/06/21 12:29:33;;;;;;;8.18;5.60;;;18.80;80.30;;;;;;5012718;28;20214;-81
2021/06/21 12:32:08;;;;;;;4.82;4.32;;;18.60;80.00;;;;;;5005068;28;20200;-82
2021/06/21 12:34:49;;;;;;;6.55;5.95;;;18.50;80.80;;;;;;5028118;28;20186;-82
2021/06/21 12:37:19;;;;;;;8.80;7.60;;;18.50;82.00;;;;;;5014392;28;20244;-81
2021/06/21 12:39:47;;;;;;;7.82;7.03;;;18.40;81.90;;;;;;5004246;28;20190;-82
2021/06/21 12:42:16;;;;;;;8.25;7.45;;;18.40;82.20;;;;;;5006645;28;20273;-82
2021/06/21 12:44:43;;;;;;;8.57;7.68;;;18.50;82.60;;;;;;5006010;28;20201;-82
2021/06/21 12:47:28;;;;;;;9.10;8.20;;;18.60;82.50;;;;;;5004977;28;20177;-83
2021/06/21 12:50:01;;;;;;;10.32;8.00;;;18.70;82.50;;;;;;5008838;28;20198;-82